createdAt,value
2023-04-06T00:00:38.872Z,21.23
2023-04-06T00:01:38.851Z,21.17
2023-04-06T00:02:38.877Z,21.12
2023-04-06T00:03:38.919Z,21.09
2023-04-06T00:04:38.833Z,21.04
2023-04-06T00:05:38.831Z,20.98
2023-04-06T00:06:38.821Z,20.95
2023-04-06T00:07:38.812Z,20.87
2023-04-06T00:08:38.809Z,20.83
2023-04-06T00:09:38.812Z,20.79
2023-04-06T00:10:38.812Z,20.75
2023-04-06T00:11:38.809Z,20.70
2023-04-06T00:12:38.884Z,20.66
2023-04-06T00:13:38.843Z,20.62
2023-04-06T00:14:38.857Z,20.58
2023-04-06T00:15:38.905Z,20.57
2023-04-06T00:16:38.993Z,20.54
2023-04-06T00:17:39.045Z,20.50
2023-04-06T00:18:39.063Z,20.48
2023-04-06T00:19:39.115Z,20.45
2023-04-06T00:20:40.109Z,20.44
2023-04-06T00:21:38.243Z,20.41
2023-04-06T00:22:39.156Z,20.39
2023-04-06T00:23:39.156Z,20.37
2023-04-06T00:24:39.153Z,20.34
2023-04-06T00:25:39.151Z,20.34
2023-04-06T00:26:39.160Z,20.35
2023-04-06T00:27:39.153Z,20.30
2023-04-06T00:28:39.142Z,20.32
2023-04-06T00:29:39.164Z,20.28
2023-04-06T00:30:39.138Z,20.27
2023-04-06T00:31:39.173Z,20.27
2023-04-06T00:32:39.206Z,20.26
2023-04-06T00:33:39.131Z,20.25
2023-04-06T00:34:39.142Z,20.24
2023-04-06T00:35:39.147Z,20.23
2023-04-06T00:36:39.125Z,20.22
2023-04-06T00:37:39.150Z,20.21
2023-04-06T00:38:39.140Z,20.22
2023-04-06T00:39:39.109Z,20.20
2023-04-06T00:40:39.100Z,20.20
2023-04-06T00:41:39.100Z,20.18
2023-04-06T00:42:39.107Z,20.18
2023-04-06T00:43:39.103Z,20.18
2023-04-06T00:44:39.135Z,20.16
2023-04-06T00:45:39.169Z,20.15
2023-04-06T00:46:39.109Z,20.16
2023-04-06T00:47:39.166Z,20.17
2023-04-06T00:48:39.104Z,20.12
2023-04-06T00:49:39.102Z,20.14
2023-04-06T00:50:39.112Z,20.16
2023-04-06T00:51:39.126Z,20.14
2023-04-06T00:52:39.182Z,20.13
2023-04-06T00:53:39.232Z,20.14
2023-04-06T00:54:39.291Z,20.14
2023-04-06T00:55:39.332Z,20.14
2023-04-06T00:56:39.378Z,20.15
2023-04-06T00:58:57.377Z,20.16
2023-04-06T00:59:58.413Z,20.14
2023-04-06T01:00:58.443Z,20.13
2023-04-06T01:01:58.522Z,20.15
2023-04-06T01:02:58.464Z,20.14
2023-04-06T01:03:58.454Z,20.12
2023-04-06T01:04:58.504Z,20.12
2023-04-06T01:05:58.469Z,20.12
2023-04-06T01:06:58.489Z,20.12
2023-04-06T01:07:58.486Z,20.11
2023-04-06T01:08:58.538Z,20.08
2023-04-06T01:09:58.502Z,20.11
2023-04-06T01:10:58.519Z,20.10
2023-04-06T01:11:58.517Z,20.12
2023-04-06T01:12:58.534Z,20.11
2023-04-06T01:13:58.543Z,20.09
2023-04-06T01:14:58.544Z,20.08
2023-04-06T01:15:58.692Z,20.08
2023-04-06T01:16:58.598Z,20.08
2023-04-06T01:17:58.588Z,20.09
2023-04-06T01:18:58.577Z,20.07
2023-04-06T01:19:58.581Z,20.09
2023-04-06T01:20:58.588Z,20.07
2023-04-06T01:21:58.600Z,20.07
2023-04-06T01:22:58.605Z,20.07
2023-04-06T01:23:58.621Z,20.07
2023-04-06T01:24:58.623Z,20.08
2023-04-06T01:25:58.642Z,20.07
2023-04-06T01:26:58.681Z,20.08
2023-04-06T01:27:58.639Z,20.05
2023-04-06T01:28:58.660Z,20.05
2023-04-06T01:29:58.651Z,20.07
2023-04-06T01:30:58.692Z,20.05
2023-04-06T01:31:58.735Z,20.06
2023-04-06T01:32:58.740Z,20.05
2023-04-06T01:33:58.683Z,20.04
2023-04-06T01:34:58.709Z,20.06
2023-04-06T01:35:58.808Z,20.07
2023-04-06T01:36:58.806Z,20.05
2023-04-06T01:37:58.866Z,20.04
2023-04-06T01:38:58.909Z,20.07
2023-04-06T01:39:58.953Z,20.05
2023-04-06T01:40:59.013Z,20.06
2023-04-06T01:41:59.057Z,20.04
2023-04-06T01:42:59.106Z,20.03
2023-04-06T01:43:59.154Z,20.04
2023-04-06T01:44:59.201Z,20.03
2023-04-06T01:45:59.271Z,20.05
2023-04-06T01:46:59.338Z,20.04
2023-04-06T01:47:59.390Z,20.05
2023-04-06T01:48:59.432Z,20.02
2023-04-06T01:49:59.451Z,20.03
2023-04-06T01:50:59.501Z,20.02
2023-04-06T01:51:59.548Z,20.04
2023-04-06T01:52:59.616Z,20.05
2023-04-06T01:53:59.732Z,20.02
2023-04-06T01:54:59.704Z,20.02
2023-04-06T01:55:59.745Z,20.02
2023-04-06T01:56:59.809Z,20.02
2023-04-06T01:57:59.856Z,20.03
2023-04-06T01:58:59.941Z,20.02
2023-04-06T01:59:59.952Z,20.03
2023-04-06T02:01:00.067Z,20.02
2023-04-06T02:02:00.148Z,20.01
2023-04-06T02:03:00.172Z,20.03
2023-04-06T02:04:00.166Z,20.01
2023-04-06T02:05:00.250Z,20.02
2023-04-06T02:06:00.301Z,20.03
2023-04-06T02:07:00.330Z,20.01
2023-04-06T02:08:00.393Z,20.04
2023-04-06T02:09:00.427Z,20.00
2023-04-06T02:10:00.470Z,20.02
2023-04-06T02:11:00.629Z,20.01
2023-04-06T02:12:00.574Z,20.01
2023-04-06T02:13:00.641Z,20.02
2023-04-06T02:14:00.676Z,20.00
2023-04-06T02:15:00.736Z,20.01
2023-04-06T02:16:00.885Z,20.00
2023-04-06T02:17:00.838Z,20.00
2023-04-06T02:18:00.963Z,20.01
2023-04-06T02:19:00.962Z,20.01
2023-04-06T02:20:00.984Z,20.00
2023-04-06T02:21:01.058Z,20.02
2023-04-06T02:22:01.094Z,20.02
2023-04-06T02:23:01.128Z,20.02
2023-04-06T02:24:01.206Z,20.00
2023-04-06T02:25:01.220Z,20.00
2023-04-06T02:26:01.278Z,20.01
2023-04-06T02:27:01.358Z,20.00
2023-04-06T02:28:01.369Z,20.02
2023-04-06T02:29:01.427Z,20.00
2023-04-06T02:30:01.486Z,20.00
2023-04-06T02:31:01.519Z,20.00
2023-04-06T02:32:01.699Z,19.99
2023-04-06T02:33:01.660Z,20.02
2023-04-06T02:34:01.695Z,20.00
2023-04-06T02:35:01.751Z,20.01
2023-04-06T02:36:01.824Z,20.03
2023-04-06T02:37:01.871Z,20.01
2023-04-06T02:38:01.887Z,20.03
2023-04-06T02:39:01.939Z,20.01
2023-04-06T02:40:02.019Z,19.99
2023-04-06T02:41:02.031Z,20.00
2023-04-06T02:42:02.090Z,19.98
2023-04-06T02:43:02.137Z,19.98
2023-04-06T02:44:02.186Z,20.00
2023-04-06T02:45:02.231Z,20.00
2023-04-06T02:46:02.365Z,19.99
2023-04-06T02:47:02.334Z,19.99
2023-04-06T02:48:02.438Z,19.99
2023-04-06T02:49:02.428Z,19.98
2023-04-06T02:50:02.471Z,19.99
2023-04-06T02:51:02.510Z,19.98
2023-04-06T02:52:02.563Z,20.00
2023-04-06T02:53:02.651Z,19.98
2023-04-06T02:54:02.665Z,19.99
2023-04-06T02:55:02.713Z,19.99
2023-04-06T02:56:02.765Z,19.98
2023-04-06T02:57:02.811Z,20.00
2023-04-06T02:58:02.864Z,19.96
2023-04-06T02:59:02.933Z,19.98
2023-04-06T03:00:03.024Z,19.98
2023-04-06T03:01:03.047Z,19.99
2023-04-06T03:02:03.061Z,19.99
2023-04-06T03:03:03.237Z,19.99
2023-04-06T03:04:03.168Z,19.99
2023-04-06T03:05:03.212Z,19.99
2023-04-06T03:06:03.265Z,19.99
2023-04-06T03:07:03.348Z,19.99
2023-04-06T03:08:03.403Z,19.99
2023-04-06T03:09:03.485Z,19.98
2023-04-06T03:10:03.941Z,19.98
2023-04-06T03:11:03.524Z,20.01
2023-04-06T03:12:04.341Z,19.97
2023-04-06T03:13:03.768Z,19.99
2023-04-06T03:14:03.704Z,19.97
2023-04-06T03:15:03.733Z,20.01
2023-04-06T03:16:03.816Z,19.99
2023-04-06T03:17:03.829Z,19.99
2023-04-06T03:18:03.907Z,19.99
2023-04-06T03:19:03.933Z,19.99
2023-04-06T03:20:04.045Z,19.98
2023-04-06T03:21:04.033Z,19.98
2023-04-06T03:22:04.098Z,20.01
2023-04-06T03:23:04.148Z,19.99
2023-04-06T03:24:04.215Z,19.99
2023-04-06T03:25:04.279Z,19.99
2023-04-06T03:26:04.307Z,19.97
2023-04-06T03:27:04.370Z,19.98
2023-04-06T03:28:04.404Z,19.99
2023-04-06T03:29:04.447Z,19.98
2023-04-06T03:30:04.546Z,20.00
2023-04-06T03:31:04.559Z,19.98
2023-04-06T03:32:04.627Z,19.97
2023-04-06T03:33:04.718Z,19.98
2023-04-06T03:34:04.711Z,20.00
2023-04-06T03:35:04.776Z,19.98
2023-04-06T03:36:04.866Z,19.99
2023-04-06T03:37:10.349Z,20.00
2023-04-06T03:38:04.886Z,20.00
2023-04-06T03:39:04.891Z,19.99
2023-04-06T03:40:05.085Z,20.00
2023-04-06T03:41:04.957Z,20.02
2023-04-06T03:42:04.960Z,19.99
2023-04-06T03:43:04.940Z,20.01
2023-04-06T03:44:04.969Z,20.00
2023-04-06T03:45:04.985Z,20.01
2023-04-06T03:46:04.991Z,20.00
2023-04-06T03:47:04.984Z,20.01
2023-04-06T03:48:05.032Z,20.00
2023-04-06T03:49:05.022Z,19.99
2023-04-06T03:50:05.076Z,20.00
2023-04-06T03:51:05.021Z,20.00
2023-04-06T03:52:05.024Z,20.00
2023-04-06T03:53:05.037Z,19.98
2023-04-06T03:54:05.048Z,20.00
2023-04-06T03:55:05.070Z,19.99
2023-04-06T03:56:05.143Z,19.99
2023-04-06T03:57:05.081Z,19.99
2023-04-06T03:58:05.061Z,19.98
2023-04-06T03:59:05.142Z,19.99
2023-04-06T04:00:05.103Z,20.00
2023-04-06T04:01:05.095Z,19.99
2023-04-06T04:02:05.107Z,20.01
2023-04-06T04:03:05.223Z,19.99
2023-04-06T04:04:05.119Z,19.99
2023-04-06T04:05:05.110Z,20.01
2023-04-06T04:06:05.091Z,20.03
2023-04-06T04:07:05.104Z,20.01
2023-04-06T04:08:05.134Z,20.02
2023-04-06T04:09:05.168Z,20.00
2023-04-06T04:10:05.220Z,20.02
2023-04-06T04:11:05.267Z,20.00
2023-04-06T04:12:05.332Z,19.99
2023-04-06T04:13:05.407Z,20.00
2023-04-06T04:14:05.429Z,20.00
2023-04-06T04:15:05.487Z,19.99
2023-04-06T04:16:05.540Z,19.97
2023-04-06T04:17:05.581Z,19.99
2023-04-06T04:18:05.718Z,19.99
2023-04-06T04:19:05.851Z,20.00
2023-04-06T04:20:05.765Z,20.01
2023-04-06T04:21:05.794Z,19.99
2023-04-06T04:22:05.854Z,20.00
2023-04-06T04:23:05.894Z,20.00
2023-04-06T04:24:05.966Z,20.00
2023-04-06T04:25:05.998Z,20.02
2023-04-06T04:26:06.097Z,19.99
2023-04-06T04:27:06.152Z,20.01
2023-04-06T04:28:06.190Z,20.00
2023-04-06T04:29:06.667Z,20.00
2023-04-06T04:30:06.284Z,20.00
2023-04-06T04:31:06.314Z,19.99
2023-04-06T04:32:06.405Z,19.99
2023-04-06T04:33:06.483Z,20.00
2023-04-06T04:34:06.473Z,19.98
2023-04-06T04:35:06.570Z,20.00
2023-04-06T04:36:06.679Z,19.98
2023-04-06T04:37:06.635Z,20.00
2023-04-06T04:38:06.698Z,19.99
2023-04-06T04:39:07.119Z,19.99
2023-04-06T04:40:06.801Z,20.01
2023-04-06T04:41:06.872Z,20.00
2023-04-06T04:42:06.927Z,19.98
2023-04-06T04:43:06.977Z,20.00
2023-04-06T04:44:07.031Z,19.98
2023-04-06T04:45:07.115Z,19.98
2023-04-06T04:46:07.155Z,20.02
2023-04-06T04:47:07.196Z,20.00
2023-04-06T04:48:07.294Z,20.00
2023-04-06T04:49:07.422Z,19.97
2023-04-06T04:50:07.792Z,19.99
2023-04-06T04:51:07.418Z,19.99
2023-04-06T04:52:07.465Z,19.98
2023-04-06T04:53:07.526Z,19.98
2023-04-06T04:54:07.583Z,20.00
2023-04-06T04:55:07.643Z,20.01
2023-04-06T04:56:07.748Z,20.01
2023-04-06T04:57:07.778Z,20.00
2023-04-06T04:58:07.800Z,20.01
2023-04-06T04:59:08.036Z,20.00
2023-04-06T05:00:07.915Z,20.02
2023-04-06T05:01:08.064Z,19.99
2023-04-06T05:02:08.198Z,20.01
2023-04-06T05:03:08.133Z,19.99
2023-04-06T05:04:08.125Z,19.99
2023-04-06T05:05:08.190Z,19.98
2023-04-06T05:06:08.274Z,19.99
2023-04-06T05:07:08.298Z,20.00
2023-04-06T05:08:08.351Z,19.98
2023-04-06T05:09:08.621Z,19.98
2023-04-06T05:10:08.608Z,19.99
2023-04-06T05:11:08.515Z,20.00
2023-04-06T05:12:08.596Z,19.99
2023-04-06T05:13:08.622Z,19.98
2023-04-06T05:14:08.693Z,19.96
2023-04-06T05:15:08.733Z,19.98
2023-04-06T05:16:08.883Z,19.99
2023-04-06T05:17:09.010Z,19.98
2023-04-06T05:18:08.930Z,19.98
2023-04-06T05:19:09.318Z,19.96
2023-04-06T05:20:09.002Z,19.96
2023-04-06T05:21:09.062Z,19.98
2023-04-06T05:22:09.133Z,19.99
2023-04-06T05:23:09.163Z,19.97
2023-04-06T05:24:09.222Z,19.97
2023-04-06T05:25:09.275Z,19.98
2023-04-06T05:26:09.365Z,19.99
2023-04-06T05:27:09.384Z,19.97
2023-04-06T05:28:09.446Z,19.95
2023-04-06T05:29:09.944Z,19.98
2023-04-06T05:30:09.556Z,19.98
2023-04-06T05:31:09.771Z,19.97
2023-04-06T05:32:09.655Z,19.98
2023-04-06T05:33:09.782Z,19.97
2023-04-06T05:34:09.784Z,19.96
2023-04-06T05:35:09.824Z,19.97
2023-04-06T05:36:09.905Z,19.96
2023-04-06T05:37:09.919Z,19.97
2023-04-06T05:38:09.973Z,19.96
2023-04-06T05:39:10.224Z,19.97
2023-04-06T05:40:10.080Z,19.96
2023-04-06T05:41:10.171Z,19.97
2023-04-06T05:42:10.193Z,19.96
2023-04-06T05:43:10.253Z,19.95
2023-04-06T05:44:10.305Z,19.98
2023-04-06T05:45:10.363Z,19.98
2023-04-06T05:46:10.506Z,19.97
2023-04-06T05:47:10.485Z,19.98
2023-04-06T05:48:10.614Z,19.96
2023-04-06T05:49:10.915Z,19.96
2023-04-06T05:50:10.677Z,19.95
2023-04-06T05:51:10.669Z,19.96
2023-04-06T05:52:10.688Z,19.97
2023-04-06T05:53:10.788Z,19.96
2023-04-06T05:54:10.794Z,19.97
2023-04-06T05:55:10.834Z,19.95
2023-04-06T05:56:10.918Z,19.95
2023-04-06T05:57:10.938Z,19.95
2023-04-06T05:58:11.009Z,19.94
2023-04-06T05:59:11.306Z,19.96
2023-04-06T06:00:11.123Z,19.95
2023-04-06T06:01:11.160Z,19.96
2023-04-06T06:02:11.249Z,19.88
2023-04-06T06:03:11.272Z,19.84
2023-04-06T06:04:11.326Z,19.86
2023-04-06T06:05:11.450Z,19.86
2023-04-06T06:06:11.437Z,19.88
2023-04-06T06:07:11.490Z,19.88
2023-04-06T06:08:11.544Z,19.89
2023-04-06T06:09:11.598Z,19.86
2023-04-06T06:10:11.636Z,19.89
2023-04-06T06:11:11.692Z,19.89
2023-04-06T06:12:14.493Z,19.90
2023-04-06T06:13:11.771Z,19.91
2023-04-06T06:14:11.742Z,19.90
2023-04-06T06:15:11.762Z,19.91
2023-04-06T06:16:11.776Z,19.92
2023-04-06T06:17:11.760Z,19.93
2023-04-06T06:18:11.851Z,19.91
2023-04-06T06:19:11.787Z,19.92
2023-04-06T06:20:11.791Z,19.93
2023-04-06T06:21:11.831Z,19.91
2023-04-06T06:22:11.799Z,19.92
2023-04-06T06:23:11.795Z,19.93
2023-04-06T06:24:11.809Z,19.93
2023-04-06T06:25:11.820Z,19.93
2023-04-06T06:26:11.825Z,19.93
2023-04-06T06:27:11.840Z,19.93
2023-04-06T06:28:12.049Z,19.95
2023-04-06T06:29:11.858Z,19.94
2023-04-06T06:30:11.873Z,19.96
2023-04-06T06:31:12.015Z,19.95
2023-04-06T06:32:11.895Z,19.94
2023-04-06T06:33:11.894Z,19.94
2023-04-06T06:34:11.897Z,19.94
2023-04-06T06:35:11.896Z,19.93
2023-04-06T06:36:11.924Z,19.93
2023-04-06T06:37:11.947Z,19.90
2023-04-06T06:38:11.938Z,19.92
2023-04-06T06:39:12.109Z,19.91
2023-04-06T06:40:11.970Z,19.90
2023-04-06T06:41:11.962Z,19.90
2023-04-06T06:42:14.132Z,19.92
2023-04-06T06:43:11.970Z,19.90
2023-04-06T06:44:12.092Z,19.89
2023-04-06T06:45:12.032Z,19.91
2023-04-06T06:46:12.014Z,19.90
2023-04-06T06:47:11.997Z,19.92
2023-04-06T06:48:12.046Z,19.93
2023-04-06T06:49:11.987Z,19.93
2023-04-06T06:50:11.989Z,19.93
2023-04-06T06:51:11.992Z,19.94
2023-04-06T06:52:11.993Z,19.94
2023-04-06T06:53:12.041Z,19.97
2023-04-06T06:54:12.113Z,19.96
2023-04-06T06:55:12.023Z,19.96
2023-04-06T06:56:11.997Z,19.97
2023-04-06T06:57:12.016Z,19.96
2023-04-06T06:58:12.015Z,19.97
2023-04-06T06:59:12.201Z,19.96
2023-04-06T07:00:13.256Z,19.99
2023-04-06T07:01:12.237Z,19.99
2023-04-06T07:02:12.285Z,19.98
2023-04-06T07:03:12.315Z,19.98
2023-04-06T07:04:12.475Z,19.98
2023-04-06T07:05:26.141Z,19.98
2023-04-06T07:06:12.433Z,20.00
2023-04-06T07:07:12.413Z,20.00
2023-04-06T07:08:12.416Z,19.98
2023-04-06T07:09:12.447Z,20.00
2023-04-06T07:10:12.448Z,20.01
2023-04-06T07:11:12.417Z,20.00
2023-04-06T07:12:12.420Z,20.00
2023-04-06T07:13:12.430Z,19.98
2023-04-06T07:14:12.455Z,19.98
2023-04-06T07:15:12.465Z,19.98
2023-04-06T07:16:12.469Z,19.97
2023-04-06T07:17:12.946Z,19.93
2023-04-06T07:18:13.041Z,19.93
2023-04-06T07:19:12.471Z,19.96
2023-04-06T07:20:12.480Z,19.93
2023-04-06T07:21:12.667Z,19.93
2023-04-06T07:22:12.467Z,19.95
2023-04-06T07:23:12.486Z,19.94
2023-04-06T07:24:12.481Z,19.93
2023-04-06T07:25:12.563Z,19.96
2023-04-06T07:26:12.516Z,19.96
2023-04-06T07:27:12.515Z,19.97
2023-04-06T07:28:12.528Z,19.99
2023-04-06T07:29:12.544Z,19.99
2023-04-06T07:30:12.556Z,19.99
2023-04-06T07:31:12.546Z,19.99
2023-04-06T07:32:12.865Z,20.00
2023-04-06T07:33:12.565Z,20.01
2023-04-06T07:34:12.612Z,20.01
2023-04-06T07:35:12.580Z,20.00
2023-04-06T07:36:12.589Z,20.01
2023-04-06T07:37:12.597Z,20.01
2023-04-06T07:38:12.616Z,20.01
2023-04-06T07:39:12.631Z,20.01
2023-04-06T07:40:12.627Z,20.00
2023-04-06T07:41:12.747Z,19.98
2023-04-06T07:42:12.708Z,19.99
2023-04-06T07:43:12.750Z,19.97
2023-04-06T07:44:12.796Z,19.96
2023-04-06T07:45:12.844Z,19.95
2023-04-06T07:46:12.944Z,19.94
2023-04-06T07:47:12.928Z,19.92
2023-04-06T07:48:12.954Z,19.93
2023-04-06T07:49:12.991Z,19.94
2023-04-06T07:50:13.044Z,19.94
2023-04-06T07:51:13.074Z,19.94
2023-04-06T07:52:13.143Z,19.95
2023-04-06T07:53:13.166Z,19.96
2023-04-06T07:54:13.204Z,19.97
2023-04-06T07:55:13.257Z,19.98
2023-04-06T07:56:13.312Z,19.97
2023-04-06T07:57:13.373Z,19.98
2023-04-06T07:58:13.400Z,19.98
2023-04-06T07:59:13.497Z,19.98
2023-04-06T08:00:13.499Z,20.00
2023-04-06T08:01:13.532Z,19.99
2023-04-06T08:02:13.624Z,20.00
2023-04-06T08:03:13.756Z,19.99
2023-04-06T08:04:13.819Z,20.01
2023-04-06T08:05:13.729Z,20.00
2023-04-06T08:06:13.761Z,20.01
2023-04-06T08:07:13.812Z,20.01
2023-04-06T08:08:13.856Z,20.00
2023-04-06T08:09:13.896Z,20.00
2023-04-06T08:10:13.965Z,20.00
2023-04-06T08:11:13.987Z,20.00
2023-04-06T08:12:14.039Z,19.98
2023-04-06T08:13:14.108Z,20.00
2023-04-06T08:14:14.126Z,19.99
2023-04-06T08:15:14.191Z,19.99
2023-04-06T08:16:14.348Z,20.00
2023-04-06T08:17:14.278Z,20.00
2023-04-06T08:18:14.317Z,19.99
2023-04-06T08:19:14.350Z,19.99
2023-04-06T08:20:14.394Z,19.99
2023-04-06T08:21:14.429Z,20.01
2023-04-06T08:22:14.477Z,19.99
2023-04-06T08:23:14.527Z,19.99
2023-04-06T08:24:14.570Z,20.00
2023-04-06T08:25:14.606Z,19.99
2023-04-06T08:26:14.648Z,20.01
2023-04-06T08:27:14.705Z,19.98
2023-04-06T08:28:14.739Z,20.00
2023-04-06T08:29:14.788Z,20.01
2023-04-06T08:30:14.800Z,20.01
2023-04-06T08:31:14.877Z,20.01
2023-04-06T08:32:14.886Z,20.00
2023-04-06T08:33:14.938Z,20.02
2023-04-06T08:34:15.279Z,20.01
2023-04-06T08:35:15.015Z,20.02
2023-04-06T08:36:15.062Z,20.04
2023-04-06T08:37:15.088Z,20.04
2023-04-06T08:38:15.136Z,20.02
2023-04-06T08:39:15.176Z,20.02
2023-04-06T08:40:15.220Z,20.01
2023-04-06T08:41:15.265Z,20.02
2023-04-06T08:42:15.299Z,20.04
2023-04-06T08:43:15.361Z,20.04
2023-04-06T08:44:15.383Z,20.02
2023-04-06T08:45:15.452Z,20.03
2023-04-06T08:46:15.540Z,20.04
2023-04-06T08:47:15.510Z,20.04
2023-04-06T08:48:15.543Z,20.04
2023-04-06T08:49:15.590Z,20.03
2023-04-06T08:50:15.625Z,20.04
2023-04-06T08:51:15.667Z,20.04
2023-04-06T08:52:15.704Z,20.05
2023-04-06T08:53:15.741Z,20.05
2023-04-06T08:54:15.793Z,20.04
2023-04-06T08:55:15.833Z,20.04
2023-04-06T08:56:15.875Z,20.04
2023-04-06T08:57:15.921Z,20.04
2023-04-06T08:58:27.460Z,20.02
2023-04-06T08:59:16.007Z,20.03
2023-04-06T09:00:15.969Z,20.02
2023-04-06T09:01:16.033Z,20.02
2023-04-06T09:02:16.012Z,20.03
2023-04-06T09:03:16.148Z,20.02
2023-04-06T09:04:16.421Z,20.02
2023-04-06T09:05:16.003Z,20.04
2023-04-06T09:06:16.024Z,20.02
2023-04-06T09:07:16.050Z,20.01
2023-04-06T09:08:16.021Z,20.02
2023-04-06T09:09:16.020Z,20.01
2023-04-06T09:10:16.025Z,20.01
2023-04-06T09:11:16.030Z,20.03
2023-04-06T09:12:16.044Z,20.03
2023-04-06T09:13:16.206Z,20.03
2023-04-06T09:14:16.064Z,20.06
2023-04-06T09:15:16.058Z,20.03
2023-04-06T09:16:16.095Z,20.05
2023-04-06T09:17:16.100Z,20.05
2023-04-06T09:18:16.075Z,20.04
2023-04-06T09:19:16.084Z,20.05
2023-04-06T09:20:16.089Z,20.04
2023-04-06T09:21:16.097Z,20.05
2023-04-06T09:22:16.122Z,20.08
2023-04-06T09:23:16.187Z,20.08
2023-04-06T09:24:16.201Z,20.08
2023-04-06T09:25:16.238Z,20.09
2023-04-06T09:26:16.283Z,20.08
2023-04-06T09:27:16.318Z,20.07
2023-04-06T09:28:16.370Z,20.08
2023-04-06T09:29:16.404Z,20.10
2023-04-06T09:30:16.433Z,20.10
2023-04-06T09:31:16.538Z,20.10
2023-04-06T09:32:16.507Z,20.08
2023-04-06T09:33:16.591Z,20.09
2023-04-06T09:34:16.598Z,20.07
2023-04-06T09:35:16.643Z,20.06
2023-04-06T09:36:16.791Z,20.09
2023-04-06T09:37:16.728Z,20.08
2023-04-06T09:38:16.734Z,20.08
2023-04-06T09:39:16.784Z,20.05
2023-04-06T09:40:16.809Z,20.05
2023-04-06T09:41:16.843Z,20.03
2023-04-06T09:42:16.898Z,20.03
2023-04-06T09:43:16.957Z,20.02
2023-04-06T09:44:16.965Z,20.03
2023-04-06T09:45:17.004Z,20.02
2023-04-06T09:46:17.079Z,20.02
2023-04-06T09:47:17.127Z,20.03
2023-04-06T09:48:17.160Z,20.04
2023-04-06T09:49:17.284Z,20.03
2023-04-06T09:50:17.408Z,20.04
2023-04-06T09:51:17.214Z,20.04
2023-04-06T09:52:17.274Z,20.06
2023-04-06T09:53:17.301Z,20.07
2023-04-06T09:54:17.319Z,20.07
2023-04-06T09:55:17.358Z,20.06
2023-04-06T09:56:17.396Z,20.10
2023-04-06T09:57:17.491Z,20.10
2023-04-06T09:58:17.554Z,20.09
2023-04-06T09:59:17.528Z,20.11
2023-04-06T10:00:17.546Z,20.11
2023-04-06T10:01:18.494Z,20.10
2023-04-06T10:02:17.628Z,20.11
2023-04-06T10:03:17.702Z,20.10
2023-04-06T10:04:17.755Z,20.10
2023-04-06T10:05:17.756Z,20.11
2023-04-06T10:06:17.760Z,20.11
2023-04-06T10:07:17.804Z,20.11
2023-04-06T10:08:17.835Z,20.11
2023-04-06T10:09:17.877Z,20.10
2023-04-06T10:10:17.944Z,20.09
2023-04-06T10:11:17.944Z,20.09
2023-04-06T10:12:17.988Z,20.08
2023-04-06T10:13:18.030Z,20.08
2023-04-06T10:14:18.060Z,20.08
2023-04-06T10:15:20.255Z,20.05
2023-04-06T10:16:18.106Z,20.08
2023-04-06T10:17:18.085Z,20.06
2023-04-06T10:18:18.091Z,20.08
2023-04-06T10:19:18.111Z,20.09
2023-04-06T10:20:18.204Z,20.07
2023-04-06T10:21:19.782Z,20.07
2023-04-06T10:22:18.104Z,20.10
2023-04-06T10:23:18.102Z,20.09
2023-04-06T10:24:18.100Z,20.09
2023-04-06T10:25:18.101Z,20.09
2023-04-06T10:26:18.140Z,20.10
2023-04-06T10:27:18.092Z,20.09
2023-04-06T10:28:18.101Z,20.10
2023-04-06T10:29:18.094Z,20.10
2023-04-06T10:30:18.104Z,20.12
2023-04-06T10:31:18.143Z,20.14
2023-04-06T10:32:18.205Z,20.12
2023-04-06T10:33:18.128Z,20.09
2023-04-06T10:34:18.130Z,20.11
2023-04-06T10:35:18.141Z,20.09
2023-04-06T10:36:18.216Z,20.09
2023-04-06T10:37:18.844Z,20.09
2023-04-06T10:38:18.147Z,20.08
2023-04-06T10:39:18.149Z,20.07
2023-04-06T10:40:18.207Z,20.08
2023-04-06T10:41:18.160Z,20.09
2023-04-06T10:42:18.160Z,20.06
2023-04-06T10:43:18.229Z,20.09
2023-04-06T10:44:18.171Z,20.09
2023-04-06T10:45:18.176Z,20.08
2023-04-06T10:46:18.347Z,20.08
2023-04-06T10:47:18.170Z,20.06
2023-04-06T10:48:18.227Z,20.09
2023-04-06T10:49:18.169Z,20.06
2023-04-06T10:50:18.171Z,20.07
2023-04-06T10:51:18.187Z,20.07
2023-04-06T10:52:18.175Z,20.07
2023-04-06T10:53:18.214Z,20.03
2023-04-06T10:54:18.193Z,20.05
2023-04-06T10:55:18.219Z,20.05
2023-04-06T10:56:18.254Z,20.05
2023-04-06T10:57:18.315Z,20.06
2023-04-06T10:58:18.332Z,20.05
2023-04-06T10:59:18.492Z,20.06
2023-04-06T11:00:18.389Z,20.08
2023-04-06T11:01:18.527Z,20.07
2023-04-06T11:02:18.469Z,20.08
2023-04-06T11:03:18.478Z,20.09
2023-04-06T11:04:18.532Z,20.10
2023-04-06T11:05:18.552Z,20.10
2023-04-06T11:06:18.594Z,20.11
2023-04-06T11:07:18.614Z,20.12
2023-04-06T11:08:18.655Z,20.11
2023-04-06T11:09:18.706Z,20.11
2023-04-06T11:10:20.914Z,20.13
2023-04-06T11:11:18.728Z,20.15
2023-04-06T11:12:18.718Z,20.17
2023-04-06T11:13:18.723Z,20.15
2023-04-06T11:14:18.727Z,20.14
2023-04-06T11:15:18.737Z,20.15
2023-04-06T11:16:18.784Z,20.16
2023-04-06T11:17:18.739Z,20.17
2023-04-06T11:18:18.737Z,20.18
2023-04-06T11:19:18.751Z,20.18
2023-04-06T11:20:18.742Z,20.20
2023-04-06T11:21:18.747Z,20.17
2023-04-06T11:22:18.747Z,20.18
2023-04-06T11:23:18.754Z,20.18
2023-04-06T11:24:18.756Z,20.18
2023-04-06T11:25:18.791Z,20.15
2023-04-06T11:26:18.766Z,20.17
2023-04-06T11:27:18.777Z,20.17
2023-04-06T11:28:18.780Z,20.17
2023-04-06T11:29:18.792Z,20.17
2023-04-06T11:30:18.800Z,20.19
2023-04-06T11:31:18.836Z,20.20
2023-04-06T11:32:18.828Z,20.21
2023-04-06T11:33:18.817Z,20.20
2023-04-06T11:34:18.858Z,20.21
2023-04-06T11:35:18.838Z,20.23
2023-04-06T11:36:18.966Z,20.19
2023-04-06T11:37:18.867Z,20.20
2023-04-06T11:38:18.861Z,20.19
2023-04-06T11:39:18.874Z,20.20
2023-04-06T11:40:18.860Z,20.19
2023-04-06T11:41:18.902Z,20.19
2023-04-06T11:42:18.902Z,20.15
2023-04-06T11:43:18.895Z,20.17
2023-04-06T11:44:18.898Z,20.19
2023-04-06T11:45:18.906Z,20.18
2023-04-06T11:46:18.950Z,20.21
2023-04-06T11:47:18.911Z,20.22
2023-04-06T11:48:18.916Z,20.20
2023-04-06T11:49:18.962Z,20.21
2023-04-06T11:50:18.924Z,20.20
2023-04-06T11:51:18.906Z,20.21
2023-04-06T11:52:18.926Z,20.22
2023-04-06T11:53:18.916Z,20.23
2023-04-06T11:54:18.953Z,20.24
2023-04-06T11:55:19.055Z,20.24
2023-04-06T11:56:19.016Z,20.24
2023-04-06T11:57:19.067Z,20.25
2023-04-06T11:58:19.086Z,20.24
2023-04-06T11:59:19.173Z,20.26
2023-04-06T12:00:19.169Z,20.27
2023-04-06T12:01:19.185Z,20.28
2023-04-06T12:02:19.252Z,20.28
2023-04-06T12:03:19.378Z,20.26
2023-04-06T12:04:19.338Z,20.25
2023-04-06T12:05:19.321Z,20.26
2023-04-06T12:06:19.353Z,20.24
2023-04-06T12:07:19.386Z,20.29
2023-04-06T12:08:19.422Z,20.28
2023-04-06T12:09:19.506Z,20.26
2023-04-06T12:10:19.492Z,20.24
2023-04-06T12:11:19.523Z,20.28
2023-04-06T12:12:19.564Z,20.30
2023-04-06T12:13:19.625Z,20.30
2023-04-06T12:14:19.627Z,20.29
2023-04-06T12:15:19.655Z,20.28
2023-04-06T12:16:19.720Z,20.29
2023-04-06T12:17:19.729Z,20.26
2023-04-06T12:18:19.760Z,20.24
2023-04-06T12:19:19.802Z,20.26
2023-04-06T12:20:26.434Z,20.28
2023-04-06T12:21:19.836Z,20.27
2023-04-06T12:22:19.836Z,20.32
2023-04-06T12:23:19.844Z,20.30
2023-04-06T12:24:19.856Z,20.34
2023-04-06T12:25:19.881Z,20.33
2023-04-06T12:26:19.855Z,20.33
2023-04-06T12:27:19.856Z,20.32
2023-04-06T12:28:19.861Z,20.33
2023-04-06T12:29:19.894Z,20.35
2023-04-06T12:30:19.872Z,20.34
2023-04-06T12:31:19.962Z,20.34
2023-04-06T12:32:19.871Z,20.33
2023-04-06T12:33:19.994Z,20.34
2023-04-06T12:34:19.883Z,20.38
2023-04-06T12:35:19.884Z,20.34
2023-04-06T12:36:20.165Z,20.33
2023-04-06T12:37:19.891Z,20.33
2023-04-06T12:38:19.904Z,20.35
2023-04-06T12:39:21.295Z,20.35
2023-04-06T12:40:19.922Z,20.34
2023-04-06T12:41:19.907Z,20.33
2023-04-06T12:42:19.910Z,20.37
2023-04-06T12:43:19.934Z,20.35
2023-04-06T12:44:19.924Z,20.35
2023-04-06T12:45:19.958Z,20.35
2023-04-06T12:46:19.952Z,20.36
2023-04-06T12:47:19.926Z,20.37
2023-04-06T12:48:19.933Z,20.32
2023-04-06T12:49:19.943Z,20.34
2023-04-06T12:50:19.940Z,20.34
2023-04-06T12:51:19.953Z,20.31
2023-04-06T12:52:19.932Z,20.31
2023-04-06T12:53:19.933Z,20.33
2023-04-06T12:54:19.953Z,20.32